OKBK/KWI METAR and TAF weather

Enter ICAO airport designator
Station Type Date Time Source
OKBK METAR 2022/01/29 09:00 UTC NOAA

OKBK 290900Z 36007KT CAVOK 16/M01 Q1024 NOSIG


Station Type Date Time Source
OKBK Decoded METAR 2022/01/29 09:00 UTC NOAA

Kuwait Internationalairport, Kuwait (OKBK) 29-13N 047-59E 55M
Jan 29, 2022 - 04:00 AM EST / 2022.01.29 0900 UTC
Wind: from the N (360 degrees) at 8 MPH (7 KT):0
Visibility: greater than 7 mile(s):0
Temperature: 60 F (16 C)
Dew Point: 30 F (-1 C)
Relative Humidity: 31%
Pressure (altimeter): 30.24 in. Hg (1024 hPa)
ob: OKBK 290900Z 36007KT CAVOK 16/M01 Q1024 NOSIG
cycle: 9

Station Type Date Time Source
OKBK TAF 2022/01/29 06:42 UTC NOAA

TAF TAF OKBK 290445Z 2906/3012 35010KT 7000 NSC

Example: see airport list